Time;durP1;ratioP1;P1;durP2;ratioP2;P2;SDS_P1;SDS_P2;PMS_P1;PMS_P2;Temp;Humidity;BMP_temperature;BMP_pressure;BME280_temperature;BME280_humidity;BME280_pressure;Samples;Min_cycle;Max_cycle;Signal;HPM_P1;HPM_P2
2022/01/21 00:00:18;;;;;;;;;;;21.90;47.80;;;;;;5089309;28;19991;-72
2022/01/21 00:02:44;;;;;;;;;;;21.80;47.80;;;;;;5081873;28;20397;-72
2022/01/21 00:05:10;;;;;;;;;;;21.80;47.80;;;;;;5079051;28;19992;-71
2022/01/21 00:07:35;;;;;;;;;;;21.80;47.80;;;;;;5081679;28;20405;-71
2022/01/21 00:10:01;;;;;;;;;;;21.80;47.90;;;;;;5083193;28;19985;-71
2022/01/21 00:12:29;;;;;;;;;;;21.80;47.90;;;;;;5085588;28;20127;-71
2022/01/21 00:14:55;;;;;;;;;;;21.80;47.90;;;;;;5084271;28;19968;-72
2022/01/21 00:17:22;;;;;;;;;;;21.70;47.80;;;;;;5084194;28;20378;-72
2022/01/21 00:19:52;;;;;;;;;;;21.70;47.80;;;;;;5086649;28;19916;-71
2022/01/21 00:30:31;;;;;;;;;;;21.60;47.80;;;;;;5086710;28;19969;-72
2022/01/21 00:32:56;;;;;;;;;;;21.60;47.90;;;;;;5090092;28;19920;-72
2022/01/21 00:35:22;;;;;;;;;;;21.60;47.90;;;;;;5086603;28;20415;-70
2022/01/21 00:37:48;;;;;;;;;;;21.50;47.90;;;;;;5091468;28;19918;-72
2022/01/21 00:40:16;;;;;;;;;;;21.60;47.90;;;;;;5084097;28;19920;-71
2022/01/21 00:45:12;;;;;;;;;;;21.50;47.90;;;;;;5080225;28;19912;-72
2022/01/21 00:47:38;;;;;;;;;;;21.50;48.00;;;;;;5078893;28;20910;-72
2022/01/21 00:50:03;;;;;;;;;;;21.50;48.00;;;;;;5080976;28;19924;-70
2022/01/21 00:52:29;;;;;;;;;;;21.50;48.00;;;;;;5083192;28;19920;-71
2022/01/21 00:54:54;;;;;;;;;;;21.50;48.10;;;;;;5080255;28;20002;-72
2022/01/21 00:57:20;;;;;;;;;;;21.40;48.10;;;;;;5079581;28;20368;-71
2022/01/21 00:59:45;;;;;;;;;;;21.40;48.00;;;;;;5082492;28;20405;-72
2022/01/21 01:02:11;;;;;;;;;;;21.40;48.00;;;;;;5088317;28;19927;-72
2022/01/21 01:04:36;;;;;;;;;;;21.40;48.10;;;;;;5086185;28;20347;-71
2022/01/21 01:07:02;;;;;;;;;;;21.40;48.10;;;;;;5088094;28;19947;-72
2022/01/21 01:09:28;;;;;;;;;;;21.40;48.10;;;;;;5078538;28;20356;-71
2022/01/21 01:20:03;;;;;;;;;;;21.30;48.10;;;;;;5084641;28;20066;-72
2022/01/21 01:22:50;;;;;;;;;;;21.30;48.20;;;;;;5079550;28;20259;-72
2022/01/21 01:28:00;;;;;;;;;;;21.20;48.20;;;;;;5086014;28;19948;-72
2022/01/21 01:30:28;;;;;;;;;;;21.20;48.20;;;;;;5082110;28;19913;-69
2022/01/21 01:32:56;;;;;;;;;;;21.20;48.30;;;;;;5081159;28;19999;-72
2022/01/21 01:35:23;;;;;;;;;;;21.20;48.30;;;;;;5080714;28;19916;-71
2022/01/21 01:40:30;;;;;;;;;;;21.20;48.30;;;;;;5081254;28;20321;-71
2022/01/21 01:50:51;;;;;;;;;;;21.10;48.30;;;;;;5084772;28;20375;-71
2022/01/21 01:53:18;;;;;;;;;;;21.10;48.30;;;;;;5086327;28;19923;-72
2022/01/21 01:55:43;;;;;;;;;;;21.00;48.30;;;;;;5077901;28;20283;-72
2022/01/21 01:58:12;;;;;;;;;;;21.00;48.30;;;;;;5081779;28;19911;-70
2022/01/21 02:00:38;;;;;;;;;;;21.00;48.30;;;;;;5079719;28;20242;-69
2022/01/21 02:03:08;;;;;;;;;;;21.00;48.40;;;;;;5078884;28;19922;-69
2022/01/21 02:05:34;;;;;;;;;;;21.00;48.40;;;;;;5081905;28;20363;-70
2022/01/21 02:07:59;;;;;;;;;;;21.00;48.30;;;;;;5084316;28;19920;-70
2022/01/21 02:10:25;;;;;;;;;;;21.00;48.40;;;;;;5083550;28;19912;-69
2022/01/21 02:13:02;;;;;;;;;;;21.00;48.40;;;;;;5083705;28;19916;-72
2022/01/21 02:15:27;;;;;;;;;;;21.00;48.40;;;;;;5084646;28;19916;-72
2022/01/21 02:23:22;;;;;;;;;;;20.90;48.40;;;;;;5084240;28;20631;-72
2022/01/21 02:25:47;;;;;;;;;;;20.90;48.40;;;;;;5084069;28;20010;-69
2022/01/21 02:28:15;;;;;;;;;;;20.90;48.40;;;;;;5087684;28;19916;-70
2022/01/21 02:30:51;;;;;;;;;;;20.90;48.40;;;;;;5083730;28;19970;-71
2022/01/21 02:33:16;;;;;;;;;;;20.90;48.40;;;;;;5085353;28;19916;-70
2022/01/21 02:35:42;;;;;;;;;;;20.90;48.50;;;;;;5087939;28;19939;-70
2022/01/21 02:38:07;;;;;;;;;;;20.90;48.40;;;;;;5087163;28;19923;-73
2022/01/21 02:40:33;;;;;;;;;;;20.90;48.40;;;;;;5079801;28;19916;-72
2022/01/21 02:42:58;;;;;;;;;;;20.90;48.40;;;;;;5085438;28;19922;-69
2022/01/21 02:45:24;;;;;;;;;;;20.90;48.40;;;;;;5082672;28;20069;-72
2022/01/21 02:47:50;;;;;;;;;;;20.80;48.40;;;;;;5084705;28;20352;-72
2022/01/21 02:50:16;;;;;;;;;;;20.80;48.40;;;;;;5083037;28;20531;-69
2022/01/21 02:52:54;;;;;;;;;;;20.80;48.40;;;;;;5086614;28;19920;-71
2022/01/21 02:55:19;;;;;;;;;;;20.80;48.40;;;;;;5080581;28;20241;-70
2022/01/21 02:57:45;;;;;;;;;;;20.80;48.50;;;;;;5083892;28;19913;-72
2022/01/21 03:00:11;;;;;;;;;;;20.80;48.50;;;;;;5075352;28;19921;-71
2022/01/21 03:02:36;;;;;;;;;;;20.80;48.50;;;;;;5082220;28;19935;-72
2022/01/21 03:05:07;;;;;;;;;;;20.80;48.50;;;;;;5081504;28;19916;-70
2022/01/21 03:07:33;;;;;;;;;;;20.80;48.50;;;;;;5080090;28;19927;-71
2022/01/21 03:09:59;;;;;;;;;;;20.80;49.00;;;;;;5086314;28;19912;-72
2022/01/21 03:12:24;;;;;;;;;;;20.70;48.50;;;;;;5083603;28;20382;-69
2022/01/21 03:14:50;;;;;;;;;;;20.70;48.40;;;;;;5089571;28;20331;-70
2022/01/21 03:17:16;;;;;;;;;;;20.70;48.40;;;;;;5085871;28;20299;-70
2022/01/21 03:19:41;;;;;;;;;;;20.70;48.40;;;;;;5086464;28;19927;-72
2022/01/21 03:22:07;;;;;;;;;;;20.70;48.40;;;;;;5085412;28;19919;-70
2022/01/21 03:24:32;;;;;;;;;;;20.70;48.50;;;;;;5084895;28;20035;-69
2022/01/21 03:26:58;;;;;;;;;;;20.70;48.50;;;;;;5086406;28;19941;-69
2022/01/21 03:29:23;;;;;;;;;;;20.70;48.50;;;;;;5087347;28;20016;-71
2022/01/21 03:31:49;;;;;;;;;;;20.70;48.50;;;;;;5081328;28;19940;-71
2022/01/21 03:34:15;;;;;;;;;;;20.70;48.50;;;;;;5090327;28;19923;-71
2022/01/21 03:36:40;;;;;;;;;;;20.60;48.40;;;;;;5087628;28;20391;-71
2022/01/21 03:39:06;;;;;;;;;;;20.70;48.50;;;;;;5090022;28;20425;-71
2022/01/21 03:41:32;;;;;;;;;;;20.70;48.60;;;;;;5085884;28;19916;-70
2022/01/21 03:43:57;;;;;;;;;;;20.60;48.50;;;;;;5087387;28;19951;-69
2022/01/21 03:46:23;;;;;;;;;;;20.60;48.50;;;;;;5086809;28;19920;-71
2022/01/21 03:48:50;;;;;;;;;;;20.60;48.50;;;;;;5085203;28;19931;-71
2022/01/21 03:51:17;;;;;;;;;;;20.60;48.50;;;;;;5084976;28;19955;-71
2022/01/21 03:53:44;;;;;;;;;;;20.60;48.50;;;;;;5091099;28;20363;-71
2022/01/21 03:56:09;;;;;;;;;;;20.60;48.50;;;;;;5088940;28;19954;-69
2022/01/21 03:58:35;;;;;;;;;;;20.60;48.60;;;;;;5087999;28;20621;-71
2022/01/21 04:01:00;;;;;;;;;;;20.60;48.60;;;;;;5085826;28;20653;-69
2022/01/21 04:03:27;;;;;;;;;;;20.60;48.60;;;;;;5092325;28;20078;-71
2022/01/21 04:05:53;;;;;;;;;;;20.60;48.60;;;;;;5092824;28;20367;-71
2022/01/21 04:08:18;;;;;;;;;;;20.60;49.10;;;;;;5089871;28;19916;-71
2022/01/21 04:10:48;;;;;;;;;;;20.50;48.60;;;;;;5086353;28;19967;-71
2022/01/21 04:13:15;;;;;;;;;;;20.50;48.60;;;;;;5087908;28;20399;-71
2022/01/21 04:15:42;;;;;;;;;;;20.50;48.60;;;;;;5089148;28;20702;-71
2022/01/21 04:18:07;;;;;;;;;;;20.50;48.60;;;;;;5086795;28;19916;-71
2022/01/21 04:20:33;;;;;;;;;;;20.50;48.60;;;;;;5087343;28;19942;-71
2022/01/21 04:22:58;;;;;;;;;;;20.50;48.60;;;;;;5087939;28;19919;-70
2022/01/21 04:25:24;;;;;;;;;;;20.50;48.60;;;;;;5081355;28;19932;-71
2022/01/21 04:27:50;;;;;;;;;;;20.50;48.70;;;;;;5081443;28;19920;-71
2022/01/21 04:30:16;;;;;;;;;;;20.50;48.70;;;;;;5084451;28;19916;-71
2022/01/21 04:32:41;;;;;;;;;;;20.50;48.70;;;;;;5079443;28;20347;-71
2022/01/21 04:35:07;;;;;;;;;;;20.50;48.70;;;;;;5083750;28;19912;-70
2022/01/21 04:37:33;;;;;;;;;;;20.40;48.70;;;;;;5087187;28;19916;-72
2022/01/21 04:40:08;;;;;;;;;;;20.40;48.70;;;;;;5083179;28;19943;-71
2022/01/21 04:48:03;;;;;;;;;;;20.40;48.80;;;;;;5080630;28;20072;-71
2022/01/21 04:50:38;;;;;;;;;;;20.40;48.80;;;;;;5085293;28;20873;-70
2022/01/21 04:53:03;;;;;;;;;;;20.40;48.80;;;;;;5086834;28;19962;-71
2022/01/21 04:55:29;;;;;;;;;;;20.40;48.80;;;;;;5087829;28;20387;-71
2022/01/21 04:57:54;;;;;;;;;;;20.40;48.80;;;;;;5088538;28;20000;-71
2022/01/21 05:00:20;;;;;;;;;;;20.40;48.80;;;;;;5083470;28;19969;-71
2022/01/21 05:02:45;;;;;;;;;;;20.40;48.90;;;;;;5082832;28;19966;-71
2022/01/21 05:05:11;;;;;;;;;;;20.40;48.90;;;;;;5086239;28;19927;-71
2022/01/21 05:07:39;;;;;;;;;;;20.40;48.80;;;;;;5084709;28;20277;-68
2022/01/21 05:10:05;;;;;;;;;;;20.40;48.90;;;;;;5084362;28;19992;-71
2022/01/21 05:12:30;;;;;;;;;;;20.40;48.90;;;;;;5083457;28;19927;-71
2022/01/21 05:17:22;;;;;;;;;;;20.40;48.90;;;;;;5086368;28;19955;-68
2022/01/21 05:19:48;;;;;;;;;;;20.30;48.80;;;;;;5082783;28;19951;-70
2022/01/21 05:22:13;;;;;;;;;;;20.30;48.80;;;;;;5088169;28;20264;-71
2022/01/21 05:24:39;;;;;;;;;;;20.30;48.90;;;;;;5084530;28;20008;-71
2022/01/21 05:27:06;;;;;;;;;;;20.30;48.90;;;;;;5081671;28;20627;-71
2022/01/21 05:29:32;;;;;;;;;;;20.30;48.90;;;;;;5082699;28;19924;-69
2022/01/21 05:31:58;;;;;;;;;;;20.30;48.90;;;;;;5083792;28;19998;-70
2022/01/21 05:34:24;;;;;;;;;;;20.30;48.90;;;;;;5078394;28;19924;-71
2022/01/21 05:36:49;;;;;;;;;;;20.30;48.90;;;;;;5082871;28;20364;-71
2022/01/21 05:39:16;;;;;;;;;;;20.30;48.90;;;;;;5079961;28;19973;-71
2022/01/21 05:41:47;;;;;;;;;;;20.30;49.00;;;;;;5105052;27;19929;-71
2022/01/21 05:44:20;;;;;;;;;;;20.30;49.00;;;;;;5085918;28;20015;-69
2022/01/21 05:46:55;;;;;;;;;;;20.30;49.00;;;;;;5078686;28;20003;-71
2022/01/21 05:49:21;;;;;;;;;;;20.30;49.10;;;;;;5087365;28;19924;-71
2022/01/21 05:51:47;;;;;;;;;;;20.30;49.00;;;;;;5085975;28;19923;-71
2022/01/21 05:54:13;;;;;;;;;;;20.30;49.00;;;;;;5083090;28;19920;-70
2022/01/21 05:56:39;;;;;;;;;;;20.30;49.10;;;;;;5087401;28;19920;-71
2022/01/21 05:59:05;;;;;;;;;;;20.30;49.10;;;;;;5088585;28;20015;-71
2022/01/21 06:01:31;;;;;;;;;;;20.30;49.10;;;;;;5087624;28;19912;-71
2022/01/21 06:03:57;;;;;;;;;;;20.30;49.10;;;;;;5085421;28;20572;-70
2022/01/21 06:06:22;;;;;;;;;;;20.30;49.20;;;;;;5085479;28;19916;-68
2022/01/21 06:08:48;;;;;;;;;;;20.30;49.20;;;;;;5086322;28;20068;-71
2022/01/21 06:11:13;;;;;;;;;;;20.30;49.20;;;;;;5088449;28;19919;-68
2022/01/21 06:13:39;;;;;;;;;;;20.30;49.20;;;;;;5089203;28;20054;-71
2022/01/21 06:16:05;;;;;;;;;;;20.30;49.20;;;;;;5086500;28;19923;-70
2022/01/21 06:18:30;;;;;;;;;;;20.30;49.30;;;;;;5089887;28;19912;-71
2022/01/21 06:20:56;;;;;;;;;;;20.30;49.30;;;;;;5085713;28;19923;-70
2022/01/21 06:23:21;;;;;;;;;;;20.20;49.20;;;;;;5085160;28;20515;-71
2022/01/21 06:25:47;;;;;;;;;;;20.20;49.30;;;;;;5084080;28;20030;-68
2022/01/21 06:28:13;;;;;;;;;;;20.30;49.30;;;;;;5080490;28;19967;-71
2022/01/21 06:30:39;;;;;;;;;;;20.20;49.30;;;;;;5083514;28;20009;-71
2022/01/21 06:33:05;;;;;;;;;;;20.20;49.30;;;;;;5087603;28;19919;-68
2022/01/21 06:35:33;;;;;;;;;;;20.20;49.30;;;;;;5083849;28;19924;-68
2022/01/21 06:37:59;;;;;;;;;;;20.20;49.30;;;;;;5085791;28;20252;-70
2022/01/21 06:40:24;;;;;;;;;;;20.20;49.40;;;;;;5084811;28;19916;-70
2022/01/21 06:42:51;;;;;;;;;;;20.20;49.30;;;;;;5086167;28;19916;-71
2022/01/21 06:45:17;;;;;;;;;;;20.20;49.40;;;;;;5088872;28;19962;-71
2022/01/21 06:47:42;;;;;;;;;;;20.20;49.40;;;;;;5084900;28;19918;-70
2022/01/21 06:50:08;;;;;;;;;;;20.20;49.40;;;;;;5093241;28;19920;-71
2022/01/21 06:52:34;;;;;;;;;;;20.20;49.40;;;;;;5088826;28;19941;-70
2022/01/21 06:55:00;;;;;;;;;;;20.20;49.40;;;;;;5087228;28;20260;-68
2022/01/21 06:57:27;;;;;;;;;;;20.20;49.40;;;;;;5082026;28;19916;-71
2022/01/21 06:59:53;;;;;;;;;;;20.20;49.80;;;;;;5086654;28;20014;-71
2022/01/21 07:02:19;;;;;;;;;;;20.40;51.20;;;;;;5089540;28;20027;-69
2022/01/21 07:04:48;;;;;;;;;;;20.70;51.20;;;;;;5091017;28;20330;-70
2022/01/21 07:07:14;;;;;;;;;;;20.90;51.10;;;;;;5085672;28;19918;-69
2022/01/21 07:09:40;;;;;;;;;;;21.20;50.70;;;;;;5085149;28;20174;-70
2022/01/21 07:12:05;;;;;;;;;;;21.30;50.80;;;;;;5091424;28;19912;-68
2022/01/21 07:14:31;;;;;;;;;;;21.50;50.60;;;;;;5086246;28;19917;-70
2022/01/21 07:16:56;;;;;;;;;;;21.60;50.60;;;;;;5089449;28;20015;-71
2022/01/21 07:19:22;;;;;;;;;;;21.80;50.30;;;;;;5089835;28;20011;-70
2022/01/21 07:21:47;;;;;;;;;;;22.00;50.00;;;;;;5090612;28;19912;-70
2022/01/21 07:24:13;;;;;;;;;;;22.00;49.90;;;;;;5086926;28;19920;-69
2022/01/21 07:26:38;;;;;;;;;;;22.10;50.00;;;;;;5085442;28;20020;-69
2022/01/21 07:29:04;;;;;;;;;;;22.20;50.30;;;;;;5087828;28;19916;-68
2022/01/21 07:31:29;;;;;;;;;;;22.20;50.00;;;;;;5091128;28;20031;-69
2022/01/21 07:33:55;;;;;;;;;;;22.20;50.20;;;;;;5092485;28;19907;-70
2022/01/21 07:36:20;;;;;;;;;;;22.10;50.30;;;;;;5091927;28;19951;-67
2022/01/21 07:38:46;;;;;;;;;;;22.10;50.50;;;;;;5090938;28;19916;-70
2022/01/21 07:41:11;;;;;;;;;;;22.10;50.60;;;;;;5089106;28;19916;-67
2022/01/21 07:43:37;;;;;;;;;;;22.00;50.60;;;;;;5092268;28;20008;-69
2022/01/21 07:46:03;;;;;;;;;;;22.10;50.80;;;;;;5089329;28;19912;-68
2022/01/21 07:48:29;;;;;;;;;;;22.00;50.70;;;;;;5091106;28;19924;-70
2022/01/21 07:50:54;;;;;;;;;;;22.10;50.90;;;;;;5089497;28;19922;-72
2022/01/21 07:53:20;;;;;;;;;;;22.10;51.20;;;;;;5092771;28;20346;-69
2022/01/21 07:55:49;;;;;;;;;;;22.10;51.10;;;;;;5084893;28;19916;-71
2022/01/21 07:58:15;;;;;;;;;;;22.10;50.90;;;;;;5091886;28;19936;-69
2022/01/21 08:00:41;;;;;;;;;;;22.10;51.10;;;;;;5094915;28;20014;-73
2022/01/21 08:03:06;;;;;;;;;;;22.10;50.90;;;;;;5086405;28;19965;-69
2022/01/21 08:05:34;;;;;;;;;;;22.20;51.30;;;;;;5087289;28;20035;-71
2022/01/21 08:08:00;;;;;;;;;;;22.20;51.10;;;;;;5088815;28;19916;-67
2022/01/21 08:10:26;;;;;;;;;;;22.20;51.30;;;;;;5085113;28;19908;-71
2022/01/21 08:12:51;;;;;;;;;;;22.30;51.70;;;;;;5092067;28;19943;-70
2022/01/21 08:15:17;;;;;;;;;;;22.30;51.40;;;;;;5090602;28;19916;-74
2022/01/21 08:17:43;;;;;;;;;;;22.40;51.40;;;;;;5090624;28;19916;-72
2022/01/21 08:20:08;;;;;;;;;;;22.40;51.40;;;;;;5091683;28;19919;-69
2022/01/21 08:22:39;;;;;;;;;;;22.40;51.50;;;;;;5087734;28;19916;-67
2022/01/21 08:25:05;;;;;;;;;;;22.40;51.90;;;;;;5088364;28;19912;-71
2022/01/21 08:27:31;;;;;;;;;;;22.40;51.70;;;;;;5092377;28;19912;-67
2022/01/21 08:29:56;;;;;;;;;;;22.40;51.50;;;;;;5093896;28;19958;-71
2022/01/21 08:32:22;;;;;;;;;;;22.40;51.50;;;;;;5093756;28;19916;-71
2022/01/21 08:34:49;;;;;;;;;;;22.50;51.50;;;;;;5090385;28;19912;-70
2022/01/21 08:37:15;;;;;;;;;;;22.50;51.60;;;;;;5104835;28;20341;-70
2022/01/21 08:39:43;;;;;;;;;;;22.50;51.10;;;;;;5088122;28;19920;-70
2022/01/21 08:42:08;;;;;;;;;;;22.50;51.10;;;;;;5090871;28;19912;-73
2022/01/21 08:44:34;;;;;;;;;;;22.50;51.00;;;;;;5088593;28;19983;-73
2022/01/21 08:46:59;;;;;;;;;;;22.50;51.00;;;;;;5086704;28;19923;-68
2022/01/21 08:49:25;;;;;;;;;;;22.60;51.00;;;;;;5088353;28;20027;-69
2022/01/21 08:51:53;;;;;;;;;;;22.60;51.10;;;;;;5089953;28;19956;-70
2022/01/21 08:54:19;;;;;;;;;;;22.60;51.20;;;;;;5090953;28;19923;-68
2022/01/21 08:56:46;;;;;;;;;;;22.60;51.30;;;;;;5091576;28;19971;-73
2022/01/21 08:59:12;;;;;;;;;;;22.60;51.30;;;;;;5092235;28;20188;-72
2022/01/21 09:01:37;;;;;;;;;;;22.70;51.40;;;;;;5083654;28;19916;-69
2022/01/21 09:04:03;;;;;;;;;;;22.70;51.60;;;;;;5091168;28;19946;-71
2022/01/21 09:06:29;;;;;;;;;;;22.70;51.50;;;;;;5086122;28;20839;-68
2022/01/21 09:08:58;;;;;;;;;;;22.80;51.60;;;;;;5088082;28;20287;-70
2022/01/21 09:11:24;;;;;;;;;;;22.80;51.60;;;;;;5085980;28;20398;-68
2022/01/21 09:13:50;;;;;;;;;;;22.80;51.60;;;;;;5082663;28;19913;-70
2022/01/21 09:16:17;;;;;;;;;;;22.80;51.60;;;;;;5085785;28;19983;-68
2022/01/21 09:18:48;;;;;;;;;;;22.80;51.60;;;;;;5088408;28;20022;-68
2022/01/21 09:21:15;;;;;;;;;;;22.90;51.60;;;;;;5081900;28;19927;-67
2022/01/21 09:23:40;;;;;;;;;;;22.90;51.50;;;;;;5087302;28;19934;-71
2022/01/21 09:26:06;;;;;;;;;;;22.90;51.80;;;;;;5083312;28;20045;-68
2022/01/21 09:28:32;;;;;;;;;;;22.90;52.00;;;;;;5086565;28;19973;-71
2022/01/21 09:30:57;;;;;;;;;;;23.00;51.80;;;;;;5083856;28;19916;-70
2022/01/21 09:33:23;;;;;;;;;;;23.00;52.00;;;;;;5082734;28;20003;-72
2022/01/21 09:35:48;;;;;;;;;;;23.10;52.00;;;;;;5086822;28;19916;-72
2022/01/21 09:38:15;;;;;;;;;;;23.10;52.10;;;;;;5092518;28;20363;-72
2022/01/21 09:40:45;;;;;;;;;;;23.20;52.10;;;;;;5091133;28;20372;-70
2022/01/21 09:43:11;;;;;;;;;;;23.20;52.10;;;;;;5090298;28;19966;-71
2022/01/21 09:45:39;;;;;;;;;;;23.20;52.20;;;;;;5088645;28;20295;-70
2022/01/21 09:48:06;;;;;;;;;;;23.20;52.20;;;;;;5083688;28;19922;-72
2022/01/21 09:50:32;;;;;;;;;;;23.20;52.20;;;;;;5081395;28;20018;-73
2022/01/21 09:52:58;;;;;;;;;;;23.20;52.20;;;;;;5091514;28;19963;-72
2022/01/21 09:55:23;;;;;;;;;;;23.30;52.20;;;;;;5089200;28;19999;-72
2022/01/21 09:57:50;;;;;;;;;;;23.30;52.30;;;;;;5087336;28;20291;-71
2022/01/21 10:00:16;;;;;;;;;;;23.40;52.70;;;;;;5088888;28;19916;-73
2022/01/21 10:02:43;;;;;;;;;;;23.40;52.40;;;;;;5083296;28;19955;-72
2022/01/21 10:05:08;;;;;;;;;;;23.40;52.40;;;;;;5090036;28;19919;-72
2022/01/21 10:07:35;;;;;;;;;;;23.40;52.30;;;;;;5085953;28;20275;-70
2022/01/21 10:10:07;;;;;;;;;;;23.50;52.50;;;;;;5088088;28;20279;-73
2022/01/21 10:12:32;;;;;;;;;;;23.50;52.60;;;;;;5089715;28;19920;-71
2022/01/21 10:14:58;;;;;;;;;;;23.50;52.40;;;;;;5080657;28;19912;-71
2022/01/21 10:17:23;;;;;;;;;;;23.50;52.50;;;;;;5087759;28;20175;-72
2022/01/21 10:19:51;;;;;;;;;;;23.60;52.50;;;;;;5092371;28;19924;-70
2022/01/21 10:22:25;;;;;;;;;;;23.60;52.50;;;;;;5090242;28;19913;-72
2022/01/21 10:24:51;;;;;;;;;;;23.60;52.60;;;;;;5088797;28;20033;-72
2022/01/21 10:27:35;;;;;;;;;;;23.60;52.60;;;;;;5089458;28;19951;-74
2022/01/21 10:30:01;;;;;;;;;;;23.60;52.70;;;;;;5088858;28;19994;-72
2022/01/21 10:32:34;;;;;;;;;;;23.70;52.70;;;;;;5095439;28;20275;-69
2022/01/21 10:35:00;;;;;;;;;;;23.70;52.80;;;;;;5092964;28;19912;-72
2022/01/21 10:37:27;;;;;;;;;;;23.70;52.90;;;;;;5096254;28;19912;-73
2022/01/21 10:39:53;;;;;;;;;;;23.70;52.90;;;;;;5094046;28;19920;-69
2022/01/21 10:42:22;;;;;;;;;;;23.80;53.00;;;;;;5094342;28;20031;-69
2022/01/21 10:44:49;;;;;;;;;;;23.80;53.00;;;;;;5082224;28;19912;-70
2022/01/21 10:47:15;;;;;;;;;;;23.80;52.90;;;;;;5085595;28;19948;-69
2022/01/21 10:49:42;;;;;;;;;;;23.80;52.90;;;;;;5090109;28;19955;-69
2022/01/21 10:52:14;;;;;;;;;;;23.90;53.00;;;;;;5090711;28;19977;-73
2022/01/21 10:54:41;;;;;;;;;;;23.90;53.10;;;;;;5086699;28;20042;-73
2022/01/21 10:57:07;;;;;;;;;;;23.90;53.50;;;;;;5090844;28;20370;-68
2022/01/21 10:59:51;;;;;;;;;;;23.90;53.20;;;;;;5089737;28;19920;-70
2022/01/21 11:02:35;;;;;;;;;;;23.90;53.20;;;;;;5088939;28;19922;-73
2022/01/21 11:05:05;;;;;;;;;;;24.00;53.10;;;;;;5093739;28;19908;-72
2022/01/21 11:07:43;;;;;;;;;;;24.00;53.20;;;;;;5091849;28;19943;-72
2022/01/21 11:10:08;;;;;;;;;;;24.00;53.00;;;;;;5084077;28;19923;-69
2022/01/21 11:12:34;;;;;;;;;;;24.10;53.10;;;;;;5089360;28;19919;-73
2022/01/21 11:15:03;;;;;;;;;;;24.10;53.20;;;;;;5085744;28;19912;-71
2022/01/21 11:17:28;;;;;;;;;;;24.10;53.10;;;;;;5091995;28;19916;-69
2022/01/21 11:20:13;;;;;;;;;;;24.10;53.00;;;;;;5083676;28;19915;-71
2022/01/21 11:22:58;;;;;;;;;;;24.10;47.70;;;;;;5083672;28;19962;-72
2022/01/21 11:25:43;;;;;;;;;;;23.90;46.10;;;;;;5096157;28;19951;-72
2022/01/21 11:28:09;;;;;;;;;;;23.90;45.70;;;;;;5083849;28;20001;-72
2022/01/21 11:30:34;;;;;;;;;;;23.80;45.60;;;;;;5084731;28;19912;-72
2022/01/21 11:33:00;;;;;;;;;;;23.70;45.70;;;;;;5087960;28;20007;-76
2022/01/21 11:35:27;;;;;;;;;;;23.70;45.90;;;;;;5084053;28;20263;-70
2022/01/21 11:37:52;;;;;;;;;;;23.70;45.90;;;;;;5089501;28;19924;-71
2022/01/21 11:40:18;;;;;;;;;;;23.70;45.90;;;;;;5078639;28;19978;-74
2022/01/21 11:42:45;;;;;;;;;;;23.70;46.10;;;;;;5081770;28;20011;-73
2022/01/21 11:45:30;;;;;;;;;;;23.70;46.40;;;;;;5085989;28;19912;-72
2022/01/21 11:48:49;;;;;;;;;;;23.70;47.60;;;;;;5084121;28;19959;-74
2022/01/21 11:50:47;;;;;;;;;;;23.70;48.50;;;;;;5083917;28;19967;-69
2022/01/21 11:53:13;;;;;;;;;;;23.80;49.30;;;;;;5086429;28;19920;-74
2022/01/21 11:55:41;;;;;;;;;;;23.80;50.00;;;;;;5081938;28;19927;-72
2022/01/21 11:58:12;;;;;;;;;;;23.90;50.40;;;;;;5083357;28;19916;-72
2022/01/21 12:00:39;;;;;;;;;;;23.90;50.70;;;;;;5081221;28;19912;-71
2022/01/21 12:03:05;;;;;;;;;;;23.90;50.90;;;;;;5099068;28;19919;-71
2022/01/21 12:05:30;;;;;;;;;;;24.00;51.40;;;;;;5080423;28;20440;-73
2022/01/21 12:07:57;;;;;;;;;;;23.90;51.90;;;;;;5087197;28;20382;-73
2022/01/21 12:10:23;;;;;;;;;;;24.00;52.10;;;;;;5085627;28;19966;-70
2022/01/21 12:13:06;;;;;;;;;;;24.00;52.80;;;;;;5088306;28;19956;-73
2022/01/21 12:20:48;;;;;;;;;;;24.10;53.20;;;;;;5084481;28;20390;-69
2022/01/21 12:23:18;;;;;;;;;;;24.10;53.40;;;;;;5084467;28;19927;-72
2022/01/21 12:26:02;;;;;;;;;;;24.10;53.70;;;;;;5080101;28;19947;-68
2022/01/21 12:28:27;;;;;;;;;;;24.10;53.60;;;;;;5081892;28;19923;-70
2022/01/21 12:30:53;;;;;;;;;;;24.10;54.00;;;;;;5085557;28;19916;-74
2022/01/21 12:33:19;;;;;;;;;;;24.10;53.60;;;;;;5080762;28;20058;-73
2022/01/21 12:35:45;;;;;;;;;;;24.20;53.90;;;;;;5082010;28;19962;-71
2022/01/21 12:41:23;;;;;;;;;;;24.20;54.40;;;;;;5086450;28;19916;-73
2022/01/21 12:43:56;;;;;;;;;;;24.30;54.40;;;;;;5085006;28;19913;-71
2022/01/21 12:46:25;;;;;;;;;;;24.30;54.70;;;;;;5075368;28;19954;-72
2022/01/21 12:48:51;;;;;;;;;;;24.30;47.30;;;;;;5085679;28;20045;-70
2022/01/21 12:51:33;;;;;;;;;;;24.10;40.50;;;;;;5089922;28;19919;-68
2022/01/21 12:56:44;;;;;;;;;;;23.50;36.40;;;;;;5087442;28;19943;-73
2022/01/21 12:59:19;;;;;;;;;;;23.20;33.50;;;;;;5084558;28;19923;-70
2022/01/21 13:01:45;;;;;;;;;;;23.00;30.60;;;;;;5087023;28;20025;-69
2022/01/21 13:04:29;;;;;;;;;;;22.80;33.20;;;;;;5089552;28;19947;-74
2022/01/21 13:06:55;;;;;;;;;;;22.80;35.10;;;;;;5087567;28;19911;-72
2022/01/21 13:09:31;;;;;;;;;;;22.90;40.10;;;;;;5080074;28;20404;-74
2022/01/21 13:12:04;;;;;;;;;;;23.00;42.00;;;;;;5083275;28;20030;-74
2022/01/21 13:17:02;;;;;;;;;;;23.10;43.00;;;;;;5087498;28;19912;-74
2022/01/21 13:19:28;;;;;;;;;;;23.10;43.20;;;;;;5078794;28;19916;-71
2022/01/21 13:21:54;;;;;;;;;;;23.10;43.50;;;;;;5084610;28;19912;-73
2022/01/21 13:24:30;;;;;;;;;;;23.10;43.80;;;;;;5074897;28;19920;-76
2022/01/21 13:26:56;;;;;;;;;;;23.10;44.00;;;;;;5073519;28;19970;-75
2022/01/21 13:29:28;;;;;;;;;;;23.10;44.00;;;;;;5095735;28;19951;-74
2022/01/21 13:31:55;;;;;;;;;;;23.10;44.30;;;;;;5081173;28;19976;-74
2022/01/21 13:34:24;;;;;;;;;;;23.00;44.40;;;;;;5078298;28;19920;-77
2022/01/21 13:36:54;;;;;;;;;;;23.00;44.60;;;;;;5078523;28;19912;-70
2022/01/21 13:39:22;;;;;;;;;;;23.00;44.70;;;;;;5077384;28;20264;-74
2022/01/21 13:41:48;;;;;;;;;;;23.00;44.80;;;;;;5079632;28;19916;-74
2022/01/21 13:44:22;;;;;;;;;;;23.10;44.90;;;;;;5078928;28;20525;-73
2022/01/21 13:46:48;;;;;;;;;;;23.10;44.80;;;;;;5074219;28;19917;-75
2022/01/21 13:49:18;;;;;;;;;;;23.00;44.80;;;;;;5070246;28;20404;-74
2022/01/21 13:52:00;;;;;;;;;;;23.00;44.90;;;;;;5077079;28;19920;-74
2022/01/21 13:54:45;;;;;;;;;;;23.10;45.00;;;;;;5073379;28;20817;-74
2022/01/21 13:57:11;;;;;;;;;;;23.10;45.20;;;;;;5073464;28;19920;-73
2022/01/21 13:59:40;;;;;;;;;;;23.10;45.20;;;;;;5076196;28;19928;-73
2022/01/21 14:02:10;;;;;;;;;;;23.10;45.20;;;;;;5078334;28;19927;-72
2022/01/21 14:04:36;;;;;;;;;;;23.00;45.10;;;;;;5073745;28;22307;-72
2022/01/21 14:07:02;;;;;;;;;;;23.00;45.30;;;;;;5079408;28;20369;-71
2022/01/21 14:09:27;;;;;;;;;;;23.00;45.30;;;;;;5074366;28;19920;-71
2022/01/21 14:11:53;;;;;;;;;;;22.90;45.30;;;;;;5079122;28;19962;-71
2022/01/21 14:14:22;;;;;;;;;;;22.90;45.30;;;;;;5075040;28;19947;-70
2022/01/21 14:16:53;;;;;;;;;;;22.90;45.30;;;;;;5076783;28;19920;-72
2022/01/21 14:19:20;;;;;;;;;;;22.90;45.40;;;;;;5075851;28;20665;-73
2022/01/21 14:21:50;;;;;;;;;;;22.90;45.40;;;;;;5079591;28;19920;-72
2022/01/21 14:24:16;;;;;;;;;;;22.80;45.40;;;;;;5074088;28;19924;-70
2022/01/21 14:26:45;;;;;;;;;;;22.80;45.40;;;;;;5079331;28;19924;-72
2022/01/21 14:29:11;;;;;;;;;;;22.80;45.40;;;;;;5076922;28;19966;-71
2022/01/21 14:31:38;;;;;;;;;;;22.80;45.40;;;;;;5071824;28;19959;-70
2022/01/21 14:34:05;;;;;;;;;;;22.80;45.50;;;;;;5077124;28;19960;-69
2022/01/21 14:36:31;;;;;;;;;;;22.90;45.40;;;;;;5074549;28;19919;-71
2022/01/21 14:39:08;;;;;;;;;;;23.00;45.20;;;;;;5078690;28;19920;-71
2022/01/21 14:41:41;;;;;;;;;;;23.10;45.00;;;;;;5075992;28;19920;-72
2022/01/21 14:44:08;;;;;;;;;;;23.20;44.90;;;;;;5074149;28;20573;-71
2022/01/21 14:46:33;;;;;;;;;;;23.20;44.60;;;;;;5073938;28;19959;-70
2022/01/21 14:49:00;;;;;;;;;;;23.30;44.60;;;;;;5076049;28;20451;-72
2022/01/21 14:51:37;;;;;;;;;;;23.40;44.50;;;;;;5070616;28;20636;-73
2022/01/21 14:54:16;;;;;;;;;;;23.40;44.50;;;;;;5075850;28;19986;-71
2022/01/21 14:56:54;;;;;;;;;;;23.40;44.60;;;;;;5072055;28;20271;-71
2022/01/21 14:59:20;;;;;;;;;;;23.30;44.50;;;;;;5072736;28;20545;-73
2022/01/21 15:01:56;;;;;;;;;;;23.30;44.80;;;;;;5074788;28;19959;-70
2022/01/21 15:04:21;;;;;;;;;;;23.30;44.70;;;;;;5072267;28;19923;-72
2022/01/21 15:06:47;;;;;;;;;;;23.20;45.00;;;;;;5079104;28;19939;-71
2022/01/21 15:09:15;;;;;;;;;;;23.20;45.00;;;;;;5076992;28;19955;-71
2022/01/21 15:14:43;;;;;;;;;;;23.20;45.00;;;;;;5078601;28;20417;-70
2022/01/21 15:17:13;;;;;;;;;;;23.20;45.00;;;;;;5085378;28;19920;-71
2022/01/21 15:19:46;;;;;;;;;;;23.20;45.00;;;;;;5074908;28;19989;-71